Airfield :







YOU CAN JOIN US ON...

 
LOGIN :

Register | Disclaimer

   EN    FR    IT 

 









Legend :    VFR   Marginal VFR   IFR   Intensive IFR   Very Intensive IFR
Visi :
Ceiling :
>= 8 km
>= 3000ft
5 to 8 km
1000 to 3000 ft
1500m to 5 km
500 to 1000 ft
800 to 1500m
200 to 500 ft
< 800m
< 200 ft
Symbols :   Thunderstorms  Fog  Heavy snow  Heavy precipitations  Wind > 20 kt







- Airport Elevation : 6 ft
- IATA code : AEY


BIAR - Akureyri

CURRENT METAR :
  • 191700Z 22006KT 140V300 9999 -RA BKN049 15/10 Q1003 RMK WIND VADLAHEIDI 19015KT

EXPIRED METARs :
  • 191600Z 18010KT 130V220 9999 BKN050 17/09 Q1003 RMK WIND VADLAHEIDI 19010KT
  • 191500Z 20019KT 9999 BKN046 16/10 Q1003 RMK WIND VADLAHEIDI 19010KT

TAF TAF BIAR
Valid from the 19 at 18:00 until the 20 at 18:00 UTC


191606Z 1918/2018 20016KT 9999 -RA SCT038 BKN050 TX14/2015Z TN10/2006Z
BECMG 2001/2004 18006KT RA BKN015 OVC025
PROB40
TEMPO 2012/2016 RA BR BKN004 OVC010
No reported NOTAMs for that airfield.



MET'MAP, your aeronautical weather chart ! - Copyright ORBIFLY December 2007 - Disclaimer

ORBIFLY MET'MAP TEAM :

Programming & Development : Alexandra Zaïnal
Concept & Development : Baudouin d'Aumeries
Co-Development & Prog : Marc-Olivier Méhu
Technical & hardware support : Manuel Goepfert

Contact : metmap@orbifly.com




SOURCES & CREDITS :

   NOAA